TimeCST,TemperatureF,Dew PointF,Humidity,Sea Level PressureIn,VisibilityMPH,Wind Direction,Wind SpeedMPH,Gust SpeedMPH,PrecipitationIn,Events,Conditions,WindDirDegrees,DateUTC
12:54 AM,30.0,19.0,64,30.20,9.0,SSW,4.6,-,N/A,,Overcast,200,2013-03-03 06:54:00
1:54 AM,30.0,19.0,64,30.18,10.0,South,4.6,-,N/A,,Mostly Cloudy,180,2013-03-03 07:54:00
2:54 AM,30.2,19.4,64,30.13,9.0,Calm,Calm,-,N/A,,Mostly Cloudy,0,2013-03-03 08:54:00
3:54 AM,28.0,18.0,66,30.13,9.0,South,8.1,-,N/A,,Clear,170,2013-03-03 09:54:00
4:54 AM,28.0,18.0,66,30.12,9.0,South,8.1,-,N/A,,Clear,180,2013-03-03 10:54:00
5:54 AM,28.0,18.0,66,30.11,9.0,Calm,Calm,-,N/A,,Clear,0,2013-03-03 11:54:00
6:54 AM,28.0,18.0,66,30.10,9.0,South,6.9,-,N/A,,Mostly Cloudy,180,2013-03-03 12:54:00
7:54 AM,30.0,19.0,64,30.09,8.0,South,6.9,-,N/A,,Overcast,170,2013-03-03 13:54:00
8:54 AM,30.9,19.9,64,30.08,9.0,South,5.8,-,N/A,,Mostly Cloudy,180,2013-03-03 14:54:00
9:54 AM,36.0,21.0,55,30.04,10.0,SSE,3.5,-,N/A,,Mostly Cloudy,150,2013-03-03 15:54:00
10:54 AM,39.0,21.9,50,30.01,10.0,SSE,5.8,-,N/A,,Overcast,150,2013-03-03 16:54:00
11:54 AM,41.0,23.0,49,29.99,10.0,South,9.2,-,N/A,,Clear,190,2013-03-03 17:54:00
12:54 PM,42.1,24.1,49,29.95,10.0,South,9.2,-,N/A,,Clear,170,2013-03-03 18:54:00
1:54 PM,42.1,24.1,49,29.93,10.0,South,9.2,17.3,N/A,,Clear,170,2013-03-03 19:54:00
2:54 PM,42.1,25.0,51,29.90,10.0,South,6.9,-,N/A,,Clear,170,2013-03-03 20:54:00
3:54 PM,42.1,25.0,51,29.89,10.0,SE,6.9,-,N/A,,Clear,140,2013-03-03 21:54:00
4:54 PM,42.1,25.0,51,29.88,10.0,East,6.9,-,N/A,,Clear,100,2013-03-03 22:54:00
5:54 PM,41.0,25.0,53,29.87,10.0,East,8.1,-,N/A,,Partly Cloudy,90,2013-03-03 23:54:00
6:54 PM,39.9,25.0,55,29.83,10.0,ESE,9.2,-,N/A,,Clear,110,2013-03-04 00:54:00
7:54 PM,37.9,26.1,62,29.86,10.0,East,5.8,-,N/A,,Clear,80,2013-03-04 01:54:00
8:54 PM,37.9,25.0,60,29.85,10.0,East,6.9,-,N/A,,Clear,90,2013-03-04 02:54:00
9:54 PM,39.0,25.0,57,29.83,10.0,East,8.1,-,N/A,,Clear,90,2013-03-04 03:54:00
10:54 PM,39.0,25.0,57,29.81,10.0,ESE,9.2,-,N/A,,Clear,110,2013-03-04 04:54:00
11:54 PM,39.9,25.0,55,29.78,10.0,East,5.8,-,N/A,,Clear,90,2013-03-04 05:54:00